sensor_id;sensor_type;location;lat;lon;timestamp;P1;durP1;ratioP1;P2;durP2;ratioP2
32611;SDS011;19030;49.478;8.986;2023-06-14T00:01:04;12.80;;;4.95;;
32611;SDS011;19030;49.478;8.986;2023-06-14T00:03:09;9.00;;;5.22;;
32611;SDS011;19030;49.478;8.986;2023-06-14T00:05:11;7.90;;;4.45;;
32611;SDS011;19030;49.478;8.986;2023-06-14T00:07:12;8.20;;;4.40;;
32611;SDS011;19030;49.478;8.986;2023-06-14T00:09:13;8.68;;;4.90;;
32611;SDS011;19030;49.478;8.986;2023-06-14T00:11:14;10.38;;;4.88;;
32611;SDS011;19030;49.478;8.986;2023-06-14T00:13:14;10.38;;;5.10;;
32611;SDS011;19030;49.478;8.986;2023-06-14T00:15:15;8.18;;;4.45;;
32611;SDS011;19030;49.478;8.986;2023-06-14T00:17:16;11.25;;;5.03;;
32611;SDS011;19030;49.478;8.986;2023-06-14T00:19:17;11.07;;;5.25;;
32611;SDS011;19030;49.478;8.986;2023-06-14T00:21:17;8.80;;;4.72;;
32611;SDS011;19030;49.478;8.986;2023-06-14T00:23:19;8.75;;;5.03;;
32611;SDS011;19030;49.478;8.986;2023-06-14T00:25:22;8.50;;;4.40;;
32611;SDS011;19030;49.478;8.986;2023-06-14T00:27:25;8.27;;;4.80;;
32611;SDS011;19030;49.478;8.986;2023-06-14T00:29:26;10.90;;;5.22;;
32611;SDS011;19030;49.478;8.986;2023-06-14T00:31:27;8.93;;;4.63;;
32611;SDS011;19030;49.478;8.986;2023-06-14T00:33:28;9.50;;;5.10;;
32611;SDS011;19030;49.478;8.986;2023-06-14T00:35:28;8.10;;;4.50;;
32611;SDS011;19030;49.478;8.986;2023-06-14T00:37:31;10.75;;;5.22;;
32611;SDS011;19030;49.478;8.986;2023-06-14T00:39:31;9.60;;;4.82;;
32611;SDS011;19030;49.478;8.986;2023-06-14T00:41:32;8.20;;;4.80;;
32611;SDS011;19030;49.478;8.986;2023-06-14T00:43:32;11.10;;;5.13;;
32611;SDS011;19030;49.478;8.986;2023-06-14T00:45:34;9.23;;;5.20;;
32611;SDS011;19030;49.478;8.986;2023-06-14T00:47:35;10.48;;;5.32;;
32611;SDS011;19030;49.478;8.986;2023-06-14T00:49:37;8.45;;;4.45;;
32611;SDS011;19030;49.478;8.986;2023-06-14T00:51:38;10.23;;;5.13;;
32611;SDS011;19030;49.478;8.986;2023-06-14T00:53:39;8.73;;;5.15;;
32611;SDS011;19030;49.478;8.986;2023-06-14T00:55:40;8.70;;;5.00;;
32611;SDS011;19030;49.478;8.986;2023-06-14T00:57:41;9.32;;;4.88;;
32611;SDS011;19030;49.478;8.986;2023-06-14T00:59:45;9.65;;;5.10;;
32611;SDS011;19030;49.478;8.986;2023-06-14T01:01:47;11.50;;;5.47;;
32611;SDS011;19030;49.478;8.986;2023-06-14T01:03:48;10.27;;;5.00;;
32611;SDS011;19030;49.478;8.986;2023-06-14T01:05:50;9.50;;;5.10;;
32611;SDS011;19030;49.478;8.986;2023-06-14T01:08:23;9.45;;;5.05;;
32611;SDS011;19030;49.478;8.986;2023-06-14T01:10:31;9.15;;;4.93;;
32611;SDS011;19030;49.478;8.986;2023-06-14T01:13:27;11.05;;;5.15;;
32611;SDS011;19030;49.478;8.986;2023-06-14T01:17:21;10.80;;;4.78;;
32611;SDS011;19030;49.478;8.986;2023-06-14T01:19:23;11.30;;;5.00;;
32611;SDS011;19030;49.478;8.986;2023-06-14T01:21:25;10.10;;;5.25;;
32611;SDS011;19030;49.478;8.986;2023-06-14T01:23:28;9.57;;;5.30;;
32611;SDS011;19030;49.478;8.986;2023-06-14T01:25:32;10.20;;;5.15;;
32611;SDS011;19030;49.478;8.986;2023-06-14T01:27:35;8.13;;;4.90;;
32611;SDS011;19030;49.478;8.986;2023-06-14T01:29:36;10.32;;;5.25;;
32611;SDS011;19030;49.478;8.986;2023-06-14T01:31:37;11.75;;;5.63;;
32611;SDS011;19030;49.478;8.986;2023-06-14T01:33:41;9.85;;;5.40;;
32611;SDS011;19030;49.478;8.986;2023-06-14T01:35:43;11.68;;;5.20;;
32611;SDS011;19030;49.478;8.986;2023-06-14T01:37:45;10.75;;;5.30;;
32611;SDS011;19030;49.478;8.986;2023-06-14T01:39:48;9.82;;;4.93;;
32611;SDS011;19030;49.478;8.986;2023-06-14T01:41:52;10.10;;;5.45;;
32611;SDS011;19030;49.478;8.986;2023-06-14T01:43:53;8.80;;;5.25;;
32611;SDS011;19030;49.478;8.986;2023-06-14T01:45:55;8.40;;;5.00;;
32611;SDS011;19030;49.478;8.986;2023-06-14T01:48:01;9.25;;;5.50;;
32611;SDS011;19030;49.478;8.986;2023-06-14T01:50:05;9.13;;;5.72;;
32611;SDS011;19030;49.478;8.986;2023-06-14T01:52:06;8.95;;;5.35;;
32611;SDS011;19030;49.478;8.986;2023-06-14T01:54:10;10.98;;;5.72;;
32611;SDS011;19030;49.478;8.986;2023-06-14T01:56:12;10.00;;;5.00;;
32611;SDS011;19030;49.478;8.986;2023-06-14T01:58:13;9.90;;;5.28;;
32611;SDS011;19030;49.478;8.986;2023-06-14T02:00:14;10.80;;;5.25;;
32611;SDS011;19030;49.478;8.986;2023-06-14T02:02:16;9.63;;;4.93;;
32611;SDS011;19030;49.478;8.986;2023-06-14T02:04:16;9.60;;;5.30;;
32611;SDS011;19030;49.478;8.986;2023-06-14T02:06:17;9.90;;;5.72;;
32611;SDS011;19030;49.478;8.986;2023-06-14T02:08:17;10.63;;;5.72;;
32611;SDS011;19030;49.478;8.986;2023-06-14T02:10:18;12.02;;;5.38;;
32611;SDS011;19030;49.478;8.986;2023-06-14T02:12:21;11.52;;;5.60;;
32611;SDS011;19030;49.478;8.986;2023-06-14T02:14:21;9.63;;;5.18;;
32611;SDS011;19030;49.478;8.986;2023-06-14T02:16:23;12.48;;;6.15;;
32611;SDS011;19030;49.478;8.986;2023-06-14T02:18:24;11.77;;;5.50;;
32611;SDS011;19030;49.478;8.986;2023-06-14T02:20:25;11.07;;;5.70;;
32611;SDS011;19030;49.478;8.986;2023-06-14T02:22:25;9.45;;;5.07;;
32611;SDS011;19030;49.478;8.986;2023-06-14T02:24:26;14.50;;;5.28;;
32611;SDS011;19030;49.478;8.986;2023-06-14T02:26:27;9.00;;;5.07;;
32611;SDS011;19030;49.478;8.986;2023-06-14T02:28:29;8.98;;;5.47;;
32611;SDS011;19030;49.478;8.986;2023-06-14T02:30:29;10.15;;;5.47;;
32611;SDS011;19030;49.478;8.986;2023-06-14T02:32:31;10.52;;;5.43;;
32611;SDS011;19030;49.478;8.986;2023-06-14T02:34:31;8.68;;;5.20;;
32611;SDS011;19030;49.478;8.986;2023-06-14T02:36:32;9.63;;;5.20;;
32611;SDS011;19030;49.478;8.986;2023-06-14T02:38:34;10.82;;;5.85;;
32611;SDS011;19030;49.478;8.986;2023-06-14T02:40:35;9.93;;;5.78;;
32611;SDS011;19030;49.478;8.986;2023-06-14T02:42:35;9.45;;;5.43;;
32611;SDS011;19030;49.478;8.986;2023-06-14T02:44:38;13.13;;;6.22;;
32611;SDS011;19030;49.478;8.986;2023-06-14T02:46:38;10.40;;;5.75;;
32611;SDS011;19030;49.478;8.986;2023-06-14T02:48:39;9.38;;;5.53;;
32611;SDS011;19030;49.478;8.986;2023-06-14T02:50:43;10.60;;;5.45;;
32611;SDS011;19030;49.478;8.986;2023-06-14T02:52:44;9.82;;;5.72;;
32611;SDS011;19030;49.478;8.986;2023-06-14T02:54:45;14.27;;;5.35;;
32611;SDS011;19030;49.478;8.986;2023-06-14T02:56:47;10.30;;;6.13;;
32611;SDS011;19030;49.478;8.986;2023-06-14T02:58:48;11.43;;;5.60;;
32611;SDS011;19030;49.478;8.986;2023-06-14T03:00:49;11.45;;;6.07;;
32611;SDS011;19030;49.478;8.986;2023-06-14T03:02:52;12.02;;;5.78;;
32611;SDS011;19030;49.478;8.986;2023-06-14T03:04:54;11.18;;;5.80;;
32611;SDS011;19030;49.478;8.986;2023-06-14T03:06:56;9.00;;;5.40;;
32611;SDS011;19030;49.478;8.986;2023-06-14T03:08:57;10.55;;;5.75;;
32611;SDS011;19030;49.478;8.986;2023-06-14T03:11:05;9.35;;;5.82;;
32611;SDS011;19030;49.478;8.986;2023-06-14T03:13:08;8.90;;;5.47;;
32611;SDS011;19030;49.478;8.986;2023-06-14T03:15:08;11.10;;;5.68;;
32611;SDS011;19030;49.478;8.986;2023-06-14T03:17:14;9.10;;;5.28;;
32611;SDS011;19030;49.478;8.986;2023-06-14T03:19:17;12.70;;;6.25;;
32611;SDS011;19030;49.478;8.986;2023-06-14T03:21:18;14.60;;;5.60;;
32611;SDS011;19030;49.478;8.986;2023-06-14T03:23:20;10.18;;;5.90;;
32611;SDS011;19030;49.478;8.986;2023-06-14T03:25:21;9.55;;;6.03;;
32611;SDS011;19030;49.478;8.986;2023-06-14T03:27:24;10.90;;;5.97;;
32611;SDS011;19030;49.478;8.986;2023-06-14T03:29:25;10.57;;;5.70;;
32611;SDS011;19030;49.478;8.986;2023-06-14T03:31:28;9.02;;;5.80;;
32611;SDS011;19030;49.478;8.986;2023-06-14T03:33:34;9.85;;;6.25;;
32611;SDS011;19030;49.478;8.986;2023-06-14T03:35:35;14.00;;;6.30;;
32611;SDS011;19030;49.478;8.986;2023-06-14T03:37:36;8.85;;;5.53;;
32611;SDS011;19030;49.478;8.986;2023-06-14T03:39:36;11.13;;;5.97;;
32611;SDS011;19030;49.478;8.986;2023-06-14T03:41:37;10.20;;;6.15;;
32611;SDS011;19030;49.478;8.986;2023-06-14T03:43:38;12.48;;;6.00;;
32611;SDS011;19030;49.478;8.986;2023-06-14T03:45:38;10.13;;;5.72;;
32611;SDS011;19030;49.478;8.986;2023-06-14T03:47:39;12.50;;;5.38;;
32611;SDS011;19030;49.478;8.986;2023-06-14T03:49:40;10.57;;;5.28;;
32611;SDS011;19030;49.478;8.986;2023-06-14T03:51:41;10.43;;;5.90;;
32611;SDS011;19030;49.478;8.986;2023-06-14T03:53:42;9.20;;;5.35;;
32611;SDS011;19030;49.478;8.986;2023-06-14T03:55:42;12.77;;;5.85;;
32611;SDS011;19030;49.478;8.986;2023-06-14T03:57:44;10.90;;;5.72;;
32611;SDS011;19030;49.478;8.986;2023-06-14T03:59:48;12.57;;;5.90;;
32611;SDS011;19030;49.478;8.986;2023-06-14T04:01:49;8.90;;;5.40;;
32611;SDS011;19030;49.478;8.986;2023-06-14T04:03:50;8.93;;;5.72;;
32611;SDS011;19030;49.478;8.986;2023-06-14T04:05:51;8.80;;;5.50;;
32611;SDS011;19030;49.478;8.986;2023-06-14T04:07:57;9.55;;;5.75;;
32611;SDS011;19030;49.478;8.986;2023-06-14T04:09:59;10.85;;;5.60;;
32611;SDS011;19030;49.478;8.986;2023-06-14T04:12:00;9.70;;;5.50;;
32611;SDS011;19030;49.478;8.986;2023-06-14T04:14:01;10.25;;;5.22;;
32611;SDS011;19030;49.478;8.986;2023-06-14T04:16:03;9.57;;;5.57;;
32611;SDS011;19030;49.478;8.986;2023-06-14T04:18:08;9.30;;;5.28;;
32611;SDS011;19030;49.478;8.986;2023-06-14T04:20:08;10.10;;;5.53;;
32611;SDS011;19030;49.478;8.986;2023-06-14T04:22:10;8.50;;;5.05;;
32611;SDS011;19030;49.478;8.986;2023-06-14T04:24:11;10.60;;;5.63;;
32611;SDS011;19030;49.478;8.986;2023-06-14T04:26:13;9.07;;;5.10;;
32611;SDS011;19030;49.478;8.986;2023-06-14T04:28:17;10.10;;;5.78;;
32611;SDS011;19030;49.478;8.986;2023-06-14T04:30:19;11.23;;;5.20;;
32611;SDS011;19030;49.478;8.986;2023-06-14T04:32:24;10.65;;;5.68;;
32611;SDS011;19030;49.478;8.986;2023-06-14T04:34:30;11.18;;;5.68;;
32611;SDS011;19030;49.478;8.986;2023-06-14T04:36:33;11.45;;;5.97;;
32611;SDS011;19030;49.478;8.986;2023-06-14T04:38:35;12.20;;;5.50;;
32611;SDS011;19030;49.478;8.986;2023-06-14T04:40:36;12.48;;;5.15;;
32611;SDS011;19030;49.478;8.986;2023-06-14T04:42:43;10.20;;;5.70;;
32611;SDS011;19030;49.478;8.986;2023-06-14T04:44:45;10.23;;;6.00;;
32611;SDS011;19030;49.478;8.986;2023-06-14T04:46:47;10.00;;;5.45;;
32611;SDS011;19030;49.478;8.986;2023-06-14T04:48:51;10.13;;;5.57;;
32611;SDS011;19030;49.478;8.986;2023-06-14T04:50:52;15.68;;;6.20;;
32611;SDS011;19030;49.478;8.986;2023-06-14T04:52:53;11.00;;;5.30;;
32611;SDS011;19030;49.478;8.986;2023-06-14T04:54:54;10.35;;;5.18;;
32611;SDS011;19030;49.478;8.986;2023-06-14T04:56:56;10.50;;;5.35;;
32611;SDS011;19030;49.478;8.986;2023-06-14T04:58:59;10.48;;;6.35;;
32611;SDS011;19030;49.478;8.986;2023-06-14T05:01:00;12.20;;;5.65;;
32611;SDS011;19030;49.478;8.986;2023-06-14T05:03:02;13.68;;;5.60;;
32611;SDS011;19030;49.478;8.986;2023-06-14T05:05:06;10.85;;;5.70;;
32611;SDS011;19030;49.478;8.986;2023-06-14T05:07:07;11.88;;;5.90;;
32611;SDS011;19030;49.478;8.986;2023-06-14T05:09:09;10.68;;;5.00;;
32611;SDS011;19030;49.478;8.986;2023-06-14T05:11:09;9.93;;;5.28;;
32611;SDS011;19030;49.478;8.986;2023-06-14T05:13:10;9.63;;;5.68;;
32611;SDS011;19030;49.478;8.986;2023-06-14T05:15:11;10.50;;;5.63;;
32611;SDS011;19030;49.478;8.986;2023-06-14T05:17:13;9.07;;;5.10;;
32611;SDS011;19030;49.478;8.986;2023-06-14T05:19:13;8.95;;;5.07;;
32611;SDS011;19030;49.478;8.986;2023-06-14T05:21:14;9.35;;;5.78;;
32611;SDS011;19030;49.478;8.986;2023-06-14T05:23:17;12.95;;;5.53;;
32611;SDS011;19030;49.478;8.986;2023-06-14T05:25:18;14.60;;;6.15;;
32611;SDS011;19030;49.478;8.986;2023-06-14T05:27:20;9.63;;;5.50;;
32611;SDS011;19030;49.478;8.986;2023-06-14T05:29:21;9.93;;;5.30;;
32611;SDS011;19030;49.478;8.986;2023-06-14T05:31:22;11.35;;;5.63;;
32611;SDS011;19030;49.478;8.986;2023-06-14T05:33:25;9.60;;;5.32;;
32611;SDS011;19030;49.478;8.986;2023-06-14T05:35:26;12.10;;;6.07;;
32611;SDS011;19030;49.478;8.986;2023-06-14T05:37:27;12.40;;;6.00;;
32611;SDS011;19030;49.478;8.986;2023-06-14T05:39:27;10.27;;;5.05;;
32611;SDS011;19030;49.478;8.986;2023-06-14T05:41:28;15.20;;;5.50;;
32611;SDS011;19030;49.478;8.986;2023-06-14T05:43:29;9.68;;;4.93;;
32611;SDS011;19030;49.478;8.986;2023-06-14T05:45:30;11.10;;;6.78;;
32611;SDS011;19030;49.478;8.986;2023-06-14T05:47:30;10.68;;;5.40;;
32611;SDS011;19030;49.478;8.986;2023-06-14T05:49:31;12.18;;;5.60;;
32611;SDS011;19030;49.478;8.986;2023-06-14T05:51:31;9.02;;;5.32;;
32611;SDS011;19030;49.478;8.986;2023-06-14T05:53:32;10.20;;;5.40;;
32611;SDS011;19030;49.478;8.986;2023-06-14T05:55:32;9.65;;;5.53;;
32611;SDS011;19030;49.478;8.986;2023-06-14T05:57:33;17.50;;;5.80;;
32611;SDS011;19030;49.478;8.986;2023-06-14T05:59:33;9.85;;;5.38;;
32611;SDS011;19030;49.478;8.986;2023-06-14T06:01:34;11.05;;;5.22;;
32611;SDS011;19030;49.478;8.986;2023-06-14T06:03:36;8.95;;;5.28;;
32611;SDS011;19030;49.478;8.986;2023-06-14T06:05:37;11.48;;;5.00;;
32611;SDS011;19030;49.478;8.986;2023-06-14T06:07:38;10.23;;;4.93;;
32611;SDS011;19030;49.478;8.986;2023-06-14T06:09:40;10.00;;;4.93;;
32611;SDS011;19030;49.478;8.986;2023-06-14T06:11:40;11.40;;;5.18;;
32611;SDS011;19030;49.478;8.986;2023-06-14T06:13:41;10.10;;;5.68;;
32611;SDS011;19030;49.478;8.986;2023-06-14T06:15:41;9.05;;;5.25;;
32611;SDS011;19030;49.478;8.986;2023-06-14T06:17:42;8.95;;;5.10;;
32611;SDS011;19030;49.478;8.986;2023-06-14T06:19:42;12.35;;;5.32;;
32611;SDS011;19030;49.478;8.986;2023-06-14T06:21:43;9.50;;;4.82;;
32611;SDS011;19030;49.478;8.986;2023-06-14T06:23:44;9.55;;;5.40;;
32611;SDS011;19030;49.478;8.986;2023-06-14T06:25:44;11.93;;;5.60;;
32611;SDS011;19030;49.478;8.986;2023-06-14T06:27:45;9.13;;;5.18;;
32611;SDS011;19030;49.478;8.986;2023-06-14T06:29:46;11.90;;;5.18;;
32611;SDS011;19030;49.478;8.986;2023-06-14T06:31:48;9.43;;;5.35;;
32611;SDS011;19030;49.478;8.986;2023-06-14T06:33:49;12.15;;;5.30;;
32611;SDS011;19030;49.478;8.986;2023-06-14T06:35:50;9.75;;;5.32;;
32611;SDS011;19030;49.478;8.986;2023-06-14T06:37:50;9.70;;;5.65;;
32611;SDS011;19030;49.478;8.986;2023-06-14T06:39:51;9.93;;;5.43;;
32611;SDS011;19030;49.478;8.986;2023-06-14T06:41:52;8.82;;;5.13;;
32611;SDS011;19030;49.478;8.986;2023-06-14T06:44:01;11.65;;;5.03;;
32611;SDS011;19030;49.478;8.986;2023-06-14T06:46:03;11.05;;;5.10;;
32611;SDS011;19030;49.478;8.986;2023-06-14T06:48:03;9.27;;;5.22;;
32611;SDS011;19030;49.478;8.986;2023-06-14T06:50:04;8.95;;;4.82;;
32611;SDS011;19030;49.478;8.986;2023-06-14T06:52:07;10.02;;;4.72;;
32611;SDS011;19030;49.478;8.986;2023-06-14T06:54:08;10.18;;;5.40;;
32611;SDS011;19030;49.478;8.986;2023-06-14T06:56:09;8.50;;;4.85;;
32611;SDS011;19030;49.478;8.986;2023-06-14T06:58:10;12.63;;;4.93;;
32611;SDS011;19030;49.478;8.986;2023-06-14T07:00:10;9.70;;;5.00;;
32611;SDS011;19030;49.478;8.986;2023-06-14T07:02:12;9.07;;;4.22;;
32611;SDS011;19030;49.478;8.986;2023-06-14T07:04:13;9.60;;;5.47;;
32611;SDS011;19030;49.478;8.986;2023-06-14T07:06:13;8.48;;;5.10;;
32611;SDS011;19030;49.478;8.986;2023-06-14T07:08:14;7.70;;;4.82;;
32611;SDS011;19030;49.478;8.986;2023-06-14T07:10:15;13.00;;;4.90;;
32611;SDS011;19030;49.478;8.986;2023-06-14T07:12:15;12.40;;;5.15;;
32611;SDS011;19030;49.478;8.986;2023-06-14T07:14:16;9.73;;;4.90;;
32611;SDS011;19030;49.478;8.986;2023-06-14T07:16:16;8.70;;;4.70;;
32611;SDS011;19030;49.478;8.986;2023-06-14T07:18:17;10.30;;;4.93;;
32611;SDS011;19030;49.478;8.986;2023-06-14T07:20:17;8.88;;;5.10;;
32611;SDS011;19030;49.478;8.986;2023-06-14T07:22:18;10.35;;;4.93;;
32611;SDS011;19030;49.478;8.986;2023-06-14T07:24:20;8.35;;;4.80;;
32611;SDS011;19030;49.478;8.986;2023-06-14T07:26:21;8.75;;;4.90;;
32611;SDS011;19030;49.478;8.986;2023-06-14T07:28:22;11.07;;;4.97;;
32611;SDS011;19030;49.478;8.986;2023-06-14T07:30:23;8.70;;;5.03;;
32611;SDS011;19030;49.478;8.986;2023-06-14T07:32:25;8.85;;;5.05;;
32611;SDS011;19030;49.478;8.986;2023-06-14T07:34:26;12.88;;;4.75;;
32611;SDS011;19030;49.478;8.986;2023-06-14T07:36:27;8.32;;;5.18;;
32611;SDS011;19030;49.478;8.986;2023-06-14T07:38:27;7.93;;;4.75;;
32611;SDS011;19030;49.478;8.986;2023-06-14T07:40:28;8.90;;;4.70;;
32611;SDS011;19030;49.478;8.986;2023-06-14T07:42:29;10.15;;;5.57;;
32611;SDS011;19030;49.478;8.986;2023-06-14T07:44:29;11.05;;;5.90;;
32611;SDS011;19030;49.478;8.986;2023-06-14T07:46:33;10.23;;;5.20;;
32611;SDS011;19030;49.478;8.986;2023-06-14T07:48:34;9.35;;;4.97;;
32611;SDS011;19030;49.478;8.986;2023-06-14T07:50:35;8.93;;;5.45;;
32611;SDS011;19030;49.478;8.986;2023-06-14T07:52:35;7.53;;;4.72;;
32611;SDS011;19030;49.478;8.986;2023-06-14T07:54:36;9.45;;;4.53;;
32611;SDS011;19030;49.478;8.986;2023-06-14T07:56:37;10.80;;;5.22;;
32611;SDS011;19030;49.478;8.986;2023-06-14T07:58:38;11.25;;;5.05;;
32611;SDS011;19030;49.478;8.986;2023-06-14T08:00:38;9.10;;;4.80;;
32611;SDS011;19030;49.478;8.986;2023-06-14T08:02:39;9.73;;;4.90;;
32611;SDS011;19030;49.478;8.986;2023-06-14T08:04:39;9.30;;;5.22;;
32611;SDS011;19030;49.478;8.986;2023-06-14T08:06:40;10.48;;;4.50;;
32611;SDS011;19030;49.478;8.986;2023-06-14T08:08:44;10.07;;;5.28;;
32611;SDS011;19030;49.478;8.986;2023-06-14T08:10:44;10.90;;;5.35;;
32611;SDS011;19030;49.478;8.986;2023-06-14T08:12:45;9.82;;;5.05;;
32611;SDS011;19030;49.478;8.986;2023-06-14T08:14:46;11.07;;;4.88;;
32611;SDS011;19030;49.478;8.986;2023-06-14T08:16:46;9.40;;;5.28;;
32611;SDS011;19030;49.478;8.986;2023-06-14T08:18:47;9.82;;;4.95;;
32611;SDS011;19030;49.478;8.986;2023-06-14T08:20:48;8.73;;;5.20;;
32611;SDS011;19030;49.478;8.986;2023-06-14T08:22:50;12.73;;;4.75;;
32611;SDS011;19030;49.478;8.986;2023-06-14T08:24:55;9.15;;;4.80;;
32611;SDS011;19030;49.478;8.986;2023-06-14T08:26:55;9.90;;;5.03;;
32611;SDS011;19030;49.478;8.986;2023-06-14T08:28:57;8.13;;;4.82;;
32611;SDS011;19030;49.478;8.986;2023-06-14T08:30:58;8.68;;;4.80;;
32611;SDS011;19030;49.478;8.986;2023-06-14T08:32:59;12.20;;;4.93;;
32611;SDS011;19030;49.478;8.986;2023-06-14T08:34:59;11.35;;;4.93;;
32611;SDS011;19030;49.478;8.986;2023-06-14T08:37:00;9.43;;;4.63;;
32611;SDS011;19030;49.478;8.986;2023-06-14T08:39:01;10.75;;;5.50;;
32611;SDS011;19030;49.478;8.986;2023-06-14T08:41:03;11.95;;;4.68;;
32611;SDS011;19030;49.478;8.986;2023-06-14T08:43:06;7.43;;;4.88;;
32611;SDS011;19030;49.478;8.986;2023-06-14T08:45:07;9.30;;;5.43;;
32611;SDS011;19030;49.478;8.986;2023-06-14T08:47:08;9.50;;;5.10;;
32611;SDS011;19030;49.478;8.986;2023-06-14T08:49:11;13.93;;;4.88;;
32611;SDS011;19030;49.478;8.986;2023-06-14T08:51:12;7.95;;;4.70;;
32611;SDS011;19030;49.478;8.986;2023-06-14T08:53:16;7.22;;;4.32;;
32611;SDS011;19030;49.478;8.986;2023-06-14T08:55:20;8.23;;;4.63;;
32611;SDS011;19030;49.478;8.986;2023-06-14T08:57:30;8.35;;;4.63;;
32611;SDS011;19030;49.478;8.986;2023-06-14T08:59:31;10.05;;;4.32;;
32611;SDS011;19030;49.478;8.986;2023-06-14T09:01:39;13.70;;;5.13;;
32611;SDS011;19030;49.478;8.986;2023-06-14T09:03:40;7.80;;;4.40;;
32611;SDS011;19030;49.478;8.986;2023-06-14T09:05:41;10.45;;;4.82;;
32611;SDS011;19030;49.478;8.986;2023-06-14T09:07:42;8.98;;;4.50;;
32611;SDS011;19030;49.478;8.986;2023-06-14T09:09:43;10.80;;;4.22;;
32611;SDS011;19030;49.478;8.986;2023-06-14T09:11:44;9.55;;;4.57;;
32611;SDS011;19030;49.478;8.986;2023-06-14T09:13:45;9.13;;;4.25;;
32611;SDS011;19030;49.478;8.986;2023-06-14T09:15:46;8.18;;;4.78;;
32611;SDS011;19030;49.478;8.986;2023-06-14T09:17:47;9.43;;;4.10;;
32611;SDS011;19030;49.478;8.986;2023-06-14T09:19:47;8.98;;;4.32;;
32611;SDS011;19030;49.478;8.986;2023-06-14T09:21:48;8.57;;;3.97;;
32611;SDS011;19030;49.478;8.986;2023-06-14T09:23:49;7.80;;;4.07;;
32611;SDS011;19030;49.478;8.986;2023-06-14T09:25:50;9.00;;;4.50;;
32611;SDS011;19030;49.478;8.986;2023-06-14T09:27:51;7.97;;;3.70;;
32611;SDS011;19030;49.478;8.986;2023-06-14T09:29:52;10.63;;;4.38;;
32611;SDS011;19030;49.478;8.986;2023-06-14T09:31:53;8.80;;;3.75;;
32611;SDS011;19030;49.478;8.986;2023-06-14T09:33:54;7.47;;;4.22;;
32611;SDS011;19030;49.478;8.986;2023-06-14T09:35:56;10.45;;;3.95;;
32611;SDS011;19030;49.478;8.986;2023-06-14T09:37:57;7.80;;;3.90;;
32611;SDS011;19030;49.478;8.986;2023-06-14T09:39:58;12.05;;;3.97;;
32611;SDS011;19030;49.478;8.986;2023-06-14T09:41:59;7.55;;;3.92;;
32611;SDS011;19030;49.478;8.986;2023-06-14T09:44:00;7.53;;;3.78;;
32611;SDS011;19030;49.478;8.986;2023-06-14T09:46:02;7.07;;;4.00;;
32611;SDS011;19030;49.478;8.986;2023-06-14T09:48:04;7.97;;;3.72;;
32611;SDS011;19030;49.478;8.986;2023-06-14T09:50:06;9.65;;;3.97;;
32611;SDS011;19030;49.478;8.986;2023-06-14T09:52:09;8.68;;;3.95;;
32611;SDS011;19030;49.478;8.986;2023-06-14T09:54:22;12.73;;;4.70;;
32611;SDS011;19030;49.478;8.986;2023-06-14T09:58:33;9.02;;;4.20;;
32611;SDS011;19030;49.478;8.986;2023-06-14T10:00:39;7.20;;;4.13;;
32611;SDS011;19030;49.478;8.986;2023-06-14T10:02:40;10.88;;;4.15;;
32611;SDS011;19030;49.478;8.986;2023-06-14T10:04:50;8.70;;;3.95;;
32611;SDS011;19030;49.478;8.986;2023-06-14T10:07:03;6.47;;;3.90;;
32611;SDS011;19030;49.478;8.986;2023-06-14T10:09:06;8.60;;;3.92;;
32611;SDS011;19030;49.478;8.986;2023-06-14T10:11:08;6.65;;;3.95;;
32611;SDS011;19030;49.478;8.986;2023-06-14T10:13:11;6.70;;;4.30;;
32611;SDS011;19030;49.478;8.986;2023-06-14T10:15:20;10.10;;;4.07;;
32611;SDS011;19030;49.478;8.986;2023-06-14T10:17:43;9.60;;;4.07;;
32611;SDS011;19030;49.478;8.986;2023-06-14T10:19:54;6.72;;;3.85;;
32611;SDS011;19030;49.478;8.986;2023-06-14T10:22:08;8.57;;;4.10;;
32611;SDS011;19030;49.478;8.986;2023-06-14T10:24:13;11.57;;;4.32;;
32611;SDS011;19030;49.478;8.986;2023-06-14T10:26:20;6.65;;;4.00;;
32611;SDS011;19030;49.478;8.986;2023-06-14T10:28:23;11.30;;;4.47;;
32611;SDS011;19030;49.478;8.986;2023-06-14T10:30:25;7.72;;;4.30;;
32611;SDS011;19030;49.478;8.986;2023-06-14T10:32:26;6.68;;;4.07;;
32611;SDS011;19030;49.478;8.986;2023-06-14T10:34:29;7.97;;;3.80;;
32611;SDS011;19030;49.478;8.986;2023-06-14T10:36:31;9.40;;;4.57;;
32611;SDS011;19030;49.478;8.986;2023-06-14T10:38:33;7.90;;;3.90;;
32611;SDS011;19030;49.478;8.986;2023-06-14T10:40:35;6.60;;;3.85;;
32611;SDS011;19030;49.478;8.986;2023-06-14T10:42:36;8.10;;;4.72;;
32611;SDS011;19030;49.478;8.986;2023-06-14T10:46:37;7.78;;;4.00;;
32611;SDS011;19030;49.478;8.986;2023-06-14T10:48:46;8.40;;;4.15;;
32611;SDS011;19030;49.478;8.986;2023-06-14T10:50:47;6.13;;;3.70;;
32611;SDS011;19030;49.478;8.986;2023-06-14T10:52:49;9.05;;;3.88;;
32611;SDS011;19030;49.478;8.986;2023-06-14T10:57:01;11.95;;;4.25;;
32611;SDS011;19030;49.478;8.986;2023-06-14T10:59:01;8.13;;;4.03;;
32611;SDS011;19030;49.478;8.986;2023-06-14T11:01:03;10.50;;;4.30;;
32611;SDS011;19030;49.478;8.986;2023-06-14T11:05:10;7.90;;;4.00;;
32611;SDS011;19030;49.478;8.986;2023-06-14T11:07:23;5.78;;;3.53;;
32611;SDS011;19030;49.478;8.986;2023-06-14T11:12:36;9.18;;;4.07;;
32611;SDS011;19030;49.478;8.986;2023-06-14T11:14:39;8.50;;;4.00;;
32611;SDS011;19030;49.478;8.986;2023-06-14T11:16:40;10.60;;;4.07;;
32611;SDS011;19030;49.478;8.986;2023-06-14T11:18:41;9.68;;;4.07;;
32611;SDS011;19030;49.478;8.986;2023-06-14T11:20:42;6.03;;;4.00;;
32611;SDS011;19030;49.478;8.986;2023-06-14T11:22:46;7.32;;;4.32;;
32611;SDS011;19030;49.478;8.986;2023-06-14T11:24:47;9.45;;;4.25;;
32611;SDS011;19030;49.478;8.986;2023-06-14T11:26:47;8.18;;;3.90;;
32611;SDS011;19030;49.478;8.986;2023-06-14T11:28:48;8.02;;;4.10;;
32611;SDS011;19030;49.478;8.986;2023-06-14T11:30:49;11.00;;;4.10;;
32611;SDS011;19030;49.478;8.986;2023-06-14T11:33:00;12.95;;;4.38;;
32611;SDS011;19030;49.478;8.986;2023-06-14T11:35:01;7.68;;;3.78;;
32611;SDS011;19030;49.478;8.986;2023-06-14T11:37:02;6.90;;;4.00;;
32611;SDS011;19030;49.478;8.986;2023-06-14T11:39:03;10.00;;;4.22;;
32611;SDS011;19030;49.478;8.986;2023-06-14T11:41:08;11.18;;;4.22;;
32611;SDS011;19030;49.478;8.986;2023-06-14T11:43:09;7.28;;;4.15;;
32611;SDS011;19030;49.478;8.986;2023-06-14T11:45:10;6.30;;;4.10;;
32611;SDS011;19030;49.478;8.986;2023-06-14T11:47:11;6.30;;;3.70;;
32611;SDS011;19030;49.478;8.986;2023-06-14T11:49:12;8.10;;;4.20;;
32611;SDS011;19030;49.478;8.986;2023-06-14T11:51:13;7.30;;;4.47;;
32611;SDS011;19030;49.478;8.986;2023-06-14T11:53:14;7.13;;;4.25;;
32611;SDS011;19030;49.478;8.986;2023-06-14T11:55:16;6.35;;;3.90;;
32611;SDS011;19030;49.478;8.986;2023-06-14T11:57:20;10.00;;;3.97;;
32611;SDS011;19030;49.478;8.986;2023-06-14T11:59:21;10.60;;;4.55;;
32611;SDS011;19030;49.478;8.986;2023-06-14T12:01:21;6.65;;;4.10;;
32611;SDS011;19030;49.478;8.986;2023-06-14T12:03:23;8.88;;;4.80;;
32611;SDS011;19030;49.478;8.986;2023-06-14T12:05:28;10.02;;;4.85;;
32611;SDS011;19030;49.478;8.986;2023-06-14T12:07:29;8.25;;;4.30;;
32611;SDS011;19030;49.478;8.986;2023-06-14T12:09:31;10.50;;;4.57;;
32611;SDS011;19030;49.478;8.986;2023-06-14T12:11:33;9.10;;;4.40;;
32611;SDS011;19030;49.478;8.986;2023-06-14T12:13:37;8.82;;;6.32;;
32611;SDS011;19030;49.478;8.986;2023-06-14T12:15:39;10.07;;;6.47;;
32611;SDS011;19030;49.478;8.986;2023-06-14T12:17:39;9.80;;;7.45;;
32611;SDS011;19030;49.478;8.986;2023-06-14T12:19:42;14.02;;;7.15;;
32611;SDS011;19030;49.478;8.986;2023-06-14T12:21:46;10.23;;;5.30;;
32611;SDS011;19030;49.478;8.986;2023-06-14T12:23:51;9.52;;;4.75;;